sensor_id;sensor_type;location;lat;lon;timestamp;P1;durP1;ratioP1;P2;durP2;ratioP2
61009;SDS011;46897;55.340;86.082;2022-09-13T01:10:45;16.73;;;5.38;;
61009;SDS011;46897;55.340;86.082;2022-09-13T01:13:27;13.80;;;5.47;;
61009;SDS011;46897;55.340;86.082;2022-09-13T01:16:02;16.65;;;5.75;;
61009;SDS011;46897;55.340;86.082;2022-09-13T01:18:31;11.02;;;4.53;;
61009;SDS011;46897;55.340;86.082;2022-09-13T01:21:09;13.13;;;4.30;;
61009;SDS011;46897;55.340;86.082;2022-09-13T01:30:39;18.40;;;6.57;;
61009;SDS011;46897;55.340;86.082;2022-09-13T01:33:25;25.75;;;9.45;;
61009;SDS011;46897;55.340;86.082;2022-09-13T01:39:41;26.45;;;9.45;;
61009;SDS011;46897;55.340;86.082;2022-09-13T01:42:47;30.55;;;9.35;;
61009;SDS011;46897;55.340;86.082;2022-09-13T01:45:34;27.35;;;9.85;;
61009;SDS011;46897;55.340;86.082;2022-09-13T01:48:14;27.50;;;11.73;;
61009;SDS011;46897;55.340;86.082;2022-09-13T01:50:51;28.85;;;10.85;;
61009;SDS011;46897;55.340;86.082;2022-09-13T01:53:30;25.27;;;9.65;;
61009;SDS011;46897;55.340;86.082;2022-09-13T01:56:03;22.83;;;8.80;;
61009;SDS011;46897;55.340;86.082;2022-09-13T01:58:43;22.13;;;9.32;;
61009;SDS011;46897;55.340;86.082;2022-09-13T02:01:16;20.65;;;8.32;;
61009;SDS011;46897;55.340;86.082;2022-09-13T02:03:52;22.10;;;9.50;;
61009;SDS011;46897;55.340;86.082;2022-09-13T02:06:29;20.42;;;9.73;;
61009;SDS011;46897;55.340;86.082;2022-09-13T02:09:07;20.92;;;8.77;;
61009;SDS011;46897;55.340;86.082;2022-09-13T02:11:47;23.08;;;8.73;;
61009;SDS011;46897;55.340;86.082;2022-09-13T02:14:29;22.95;;;9.88;;
61009;SDS011;46897;55.340;86.082;2022-09-13T02:17:03;24.27;;;10.50;;
61009;SDS011;46897;55.340;86.082;2022-09-13T02:19:37;23.98;;;10.70;;
61009;SDS011;46897;55.340;86.082;2022-09-13T02:22:12;24.95;;;11.13;;
61009;SDS011;46897;55.340;86.082;2022-09-13T02:25:11;37.22;;;16.80;;
61009;SDS011;46897;55.340;86.082;2022-09-13T02:27:44;43.47;;;20.27;;
61009;SDS011;46897;55.340;86.082;2022-09-13T02:30:17;70.55;;;31.05;;
61009;SDS011;46897;55.340;86.082;2022-09-13T02:32:51;31.10;;;13.10;;
61009;SDS011;46897;55.340;86.082;2022-09-13T02:35:26;35.88;;;13.35;;
61009;SDS011;46897;55.340;86.082;2022-09-13T02:38:01;27.00;;;10.23;;
61009;SDS011;46897;55.340;86.082;2022-09-13T02:40:33;26.80;;;11.10;;
61009;SDS011;46897;55.340;86.082;2022-09-13T02:43:09;22.63;;;10.43;;
61009;SDS011;46897;55.340;86.082;2022-09-13T02:45:45;31.50;;;11.25;;
61009;SDS011;46897;55.340;86.082;2022-09-13T02:48:33;23.77;;;9.32;;
61009;SDS011;46897;55.340;86.082;2022-09-13T02:51:13;22.85;;;10.10;;
61009;SDS011;46897;55.340;86.082;2022-09-13T02:53:49;21.38;;;10.77;;
61009;SDS011;46897;55.340;86.082;2022-09-13T02:56:27;28.23;;;11.55;;
61009;SDS011;46897;55.340;86.082;2022-09-13T02:59:04;29.25;;;11.07;;
61009;SDS011;46897;55.340;86.082;2022-09-13T03:01:42;28.92;;;10.85;;
61009;SDS011;46897;55.340;86.082;2022-09-13T03:04:16;30.13;;;10.17;;
61009;SDS011;46897;55.340;86.082;2022-09-13T03:06:51;27.90;;;11.35;;
61009;SDS011;46897;55.340;86.082;2022-09-13T03:09:24;28.05;;;11.77;;
61009;SDS011;46897;55.340;86.082;2022-09-13T03:11:57;26.73;;;11.57;;
61009;SDS011;46897;55.340;86.082;2022-09-13T03:14:40;27.17;;;11.07;;
61009;SDS011;46897;55.340;86.082;2022-09-13T03:17:23;29.85;;;12.13;;
61009;SDS011;46897;55.340;86.082;2022-09-13T03:20:07;26.23;;;11.77;;
61009;SDS011;46897;55.340;86.082;2022-09-13T03:22:52;29.90;;;10.98;;
61009;SDS011;46897;55.340;86.082;2022-09-13T03:25:46;33.92;;;10.75;;
61009;SDS011;46897;55.340;86.082;2022-09-13T03:28:33;25.13;;;9.70;;
61009;SDS011;46897;55.340;86.082;2022-09-13T03:31:09;23.38;;;8.52;;
61009;SDS011;46897;55.340;86.082;2022-09-13T03:33:47;20.85;;;8.82;;
61009;SDS011;46897;55.340;86.082;2022-09-13T03:36:24;24.52;;;9.73;;
61009;SDS011;46897;55.340;86.082;2022-09-13T03:39:02;22.17;;;8.07;;
61009;SDS011;46897;55.340;86.082;2022-09-13T03:41:42;23.25;;;10.85;;
61009;SDS011;46897;55.340;86.082;2022-09-13T03:44:17;33.05;;;10.05;;
61009;SDS011;46897;55.340;86.082;2022-09-13T03:46:50;23.25;;;9.90;;
61009;SDS011;46897;55.340;86.082;2022-09-13T03:49:23;24.15;;;10.55;;
61009;SDS011;46897;55.340;86.082;2022-09-13T03:51:55;21.55;;;8.88;;
61009;SDS011;46897;55.340;86.082;2022-09-13T03:54:27;24.55;;;11.18;;
61009;SDS011;46897;55.340;86.082;2022-09-13T03:57:05;21.50;;;8.77;;
61009;SDS011;46897;55.340;86.082;2022-09-13T03:59:36;25.63;;;7.68;;
61009;SDS011;46897;55.340;86.082;2022-09-13T04:02:06;21.00;;;7.30;;
61009;SDS011;46897;55.340;86.082;2022-09-13T04:04:38;24.30;;;7.60;;
61009;SDS011;46897;55.340;86.082;2022-09-13T04:07:11;21.80;;;8.25;;
61009;SDS011;46897;55.340;86.082;2022-09-13T04:09:43;16.95;;;7.65;;
61009;SDS011;46897;55.340;86.082;2022-09-13T04:12:18;24.95;;;9.40;;
61009;SDS011;46897;55.340;86.082;2022-09-13T04:14:54;22.88;;;9.07;;
61009;SDS011;46897;55.340;86.082;2022-09-13T04:17:23;26.52;;;9.07;;
61009;SDS011;46897;55.340;86.082;2022-09-13T04:19:52;18.67;;;8.40;;
61009;SDS011;46897;55.340;86.082;2022-09-13T04:22:23;29.25;;;9.57;;
61009;SDS011;46897;55.340;86.082;2022-09-13T04:24:54;18.52;;;8.43;;
61009;SDS011;46897;55.340;86.082;2022-09-13T04:27:28;19.92;;;9.05;;
61009;SDS011;46897;55.340;86.082;2022-09-13T04:30:10;18.75;;;8.32;;
61009;SDS011;46897;55.340;86.082;2022-09-13T04:32:41;20.35;;;9.23;;
61009;SDS011;46897;55.340;86.082;2022-09-13T04:35:11;21.50;;;8.43;;
61009;SDS011;46897;55.340;86.082;2022-09-13T04:37:43;15.57;;;8.15;;
61009;SDS011;46897;55.340;86.082;2022-09-13T04:40:13;16.73;;;8.15;;
61009;SDS011;46897;55.340;86.082;2022-09-13T04:42:43;15.57;;;7.40;;
61009;SDS011;46897;55.340;86.082;2022-09-13T04:45:12;17.92;;;7.57;;
61009;SDS011;46897;55.340;86.082;2022-09-13T04:47:41;20.90;;;9.40;;
61009;SDS011;46897;55.340;86.082;2022-09-13T04:50:10;22.02;;;10.27;;
61009;SDS011;46897;55.340;86.082;2022-09-13T04:52:40;20.88;;;8.90;;
61009;SDS011;46897;55.340;86.082;2022-09-13T04:55:09;17.13;;;7.50;;
61009;SDS011;46897;55.340;86.082;2022-09-13T04:57:40;15.48;;;7.15;;
61009;SDS011;46897;55.340;86.082;2022-09-13T05:00:09;18.23;;;7.55;;
61009;SDS011;46897;55.340;86.082;2022-09-13T05:02:38;18.80;;;8.25;;
61009;SDS011;46897;55.340;86.082;2022-09-13T05:05:08;14.25;;;7.47;;
61009;SDS011;46897;55.340;86.082;2022-09-13T05:07:37;24.67;;;8.70;;
61009;SDS011;46897;55.340;86.082;2022-09-13T05:10:07;18.42;;;7.85;;
61009;SDS011;46897;55.340;86.082;2022-09-13T05:12:42;18.13;;;7.68;;
61009;SDS011;46897;55.340;86.082;2022-09-13T05:15:12;16.83;;;8.02;;
61009;SDS011;46897;55.340;86.082;2022-09-13T05:17:41;11.73;;;5.53;;
61009;SDS011;46897;55.340;86.082;2022-09-13T05:20:11;13.02;;;5.43;;
61009;SDS011;46897;55.340;86.082;2022-09-13T05:22:40;15.82;;;6.03;;
61009;SDS011;46897;55.340;86.082;2022-09-13T05:25:09;11.30;;;5.35;;
61009;SDS011;46897;55.340;86.082;2022-09-13T05:27:38;10.25;;;5.72;;
61009;SDS011;46897;55.340;86.082;2022-09-13T05:30:13;10.98;;;5.32;;
61009;SDS011;46897;55.340;86.082;2022-09-13T05:32:42;12.55;;;5.35;;
61009;SDS011;46897;55.340;86.082;2022-09-13T05:35:15;12.43;;;5.20;;
61009;SDS011;46897;55.340;86.082;2022-09-13T05:37:48;10.93;;;4.70;;
61009;SDS011;46897;55.340;86.082;2022-09-13T05:40:18;7.80;;;4.30;;
61009;SDS011;46897;55.340;86.082;2022-09-13T05:42:47;9.18;;;3.97;;
61009;SDS011;46897;55.340;86.082;2022-09-13T05:45:18;5.43;;;3.13;;
61009;SDS011;46897;55.340;86.082;2022-09-13T05:47:49;6.93;;;2.38;;
61009;SDS011;46897;55.340;86.082;2022-09-13T05:50:19;10.98;;;2.90;;
61009;SDS011;46897;55.340;86.082;2022-09-13T05:53:08;5.90;;;2.30;;
61009;SDS011;46897;55.340;86.082;2022-09-13T05:55:37;7.10;;;2.50;;
61009;SDS011;46897;55.340;86.082;2022-09-13T05:58:06;3.30;;;1.45;;
61009;SDS011;46897;55.340;86.082;2022-09-13T06:00:39;5.15;;;2.40;;
61009;SDS011;46897;55.340;86.082;2022-09-13T06:03:09;3.10;;;1.60;;
61009;SDS011;46897;55.340;86.082;2022-09-13T06:05:38;4.15;;;1.33;;
61009;SDS011;46897;55.340;86.082;2022-09-13T06:08:07;3.53;;;0.90;;
61009;SDS011;46897;55.340;86.082;2022-09-13T06:10:37;3.42;;;1.42;;
61009;SDS011;46897;55.340;86.082;2022-09-13T06:13:06;3.00;;;1.50;;
61009;SDS011;46897;55.340;86.082;2022-09-13T06:15:40;2.25;;;0.90;;
61009;SDS011;46897;55.340;86.082;2022-09-13T06:18:10;3.33;;;1.05;;
61009;SDS011;46897;55.340;86.082;2022-09-13T06:20:45;4.32;;;1.30;;
61009;SDS011;46897;55.340;86.082;2022-09-13T06:23:15;3.30;;;1.17;;
61009;SDS011;46897;55.340;86.082;2022-09-13T06:25:46;5.00;;;1.40;;
61009;SDS011;46897;55.340;86.082;2022-09-13T06:28:18;2.75;;;1.48;;
61009;SDS011;46897;55.340;86.082;2022-09-13T06:30:57;3.03;;;1.20;;
61009;SDS011;46897;55.340;86.082;2022-09-13T06:33:32;3.63;;;1.27;;
61009;SDS011;46897;55.340;86.082;2022-09-13T06:36:04;5.30;;;1.30;;
61009;SDS011;46897;55.340;86.082;2022-09-13T06:38:35;3.20;;;1.52;;
61009;SDS011;46897;55.340;86.082;2022-09-13T06:41:05;4.82;;;1.65;;
61009;SDS011;46897;55.340;86.082;2022-09-13T06:43:36;3.58;;;1.25;;
61009;SDS011;46897;55.340;86.082;2022-09-13T06:46:11;1.80;;;0.80;;
61009;SDS011;46897;55.340;86.082;2022-09-13T06:48:41;0.95;;;0.73;;
61009;SDS011;46897;55.340;86.082;2022-09-13T06:51:12;2.95;;;0.82;;
61009;SDS011;46897;55.340;86.082;2022-09-13T06:53:46;6.00;;;1.90;;
61009;SDS011;46897;55.340;86.082;2022-09-13T06:56:18;10.10;;;1.75;;
61009;SDS011;46897;55.340;86.082;2022-09-13T06:58:50;5.45;;;1.77;;
61009;SDS011;46897;55.340;86.082;2022-09-13T07:01:25;6.57;;;1.48;;
61009;SDS011;46897;55.340;86.082;2022-09-13T07:03:57;6.93;;;1.58;;
61009;SDS011;46897;55.340;86.082;2022-09-13T07:06:28;14.98;;;2.45;;
61009;SDS011;46897;55.340;86.082;2022-09-13T07:08:59;8.63;;;1.38;;
61009;SDS011;46897;55.340;86.082;2022-09-13T07:11:30;8.30;;;1.60;;
61009;SDS011;46897;55.340;86.082;2022-09-13T07:14:00;13.30;;;2.42;;
61009;SDS011;46897;55.340;86.082;2022-09-13T07:16:32;18.73;;;2.42;;
61009;SDS011;46897;55.340;86.082;2022-09-13T07:19:04;17.83;;;1.90;;
61009;SDS011;46897;55.340;86.082;2022-09-13T07:21:36;9.02;;;1.83;;
61009;SDS011;46897;55.340;86.082;2022-09-13T07:24:06;19.40;;;2.45;;
61009;SDS011;46897;55.340;86.082;2022-09-13T07:26:35;4.80;;;2.60;;
61009;SDS011;46897;55.340;86.082;2022-09-13T07:29:05;4.85;;;1.20;;
61009;SDS011;46897;55.340;86.082;2022-09-13T07:31:40;16.90;;;2.45;;
61009;SDS011;46897;55.340;86.082;2022-09-13T07:34:11;20.75;;;2.60;;
61009;SDS011;46897;55.340;86.082;2022-09-13T07:36:41;15.02;;;2.55;;
61009;SDS011;46897;55.340;86.082;2022-09-13T07:39:16;33.93;;;3.83;;
61009;SDS011;46897;55.340;86.082;2022-09-13T07:41:49;17.60;;;2.95;;
61009;SDS011;46897;55.340;86.082;2022-09-13T07:44:22;4.65;;;1.33;;
61009;SDS011;46897;55.340;86.082;2022-09-13T07:46:57;3.10;;;1.00;;
61009;SDS011;46897;55.340;86.082;2022-09-13T07:49:34;7.63;;;1.45;;
61009;SDS011;46897;55.340;86.082;2022-09-13T07:52:05;4.13;;;1.38;;
61009;SDS011;46897;55.340;86.082;2022-09-13T07:54:37;2.63;;;1.10;;
61009;SDS011;46897;55.340;86.082;2022-09-13T07:57:11;1.85;;;1.10;;
61009;SDS011;46897;55.340;86.082;2022-09-13T07:59:41;2.88;;;1.23;;
61009;SDS011;46897;55.340;86.082;2022-09-13T08:02:24;5.07;;;1.50;;
61009;SDS011;46897;55.340;86.082;2022-09-13T08:04:53;14.93;;;2.70;;
61009;SDS011;46897;55.340;86.082;2022-09-13T08:07:22;18.25;;;3.10;;
61009;SDS011;46897;55.340;86.082;2022-09-13T08:09:54;22.58;;;3.17;;
61009;SDS011;46897;55.340;86.082;2022-09-13T08:12:25;16.50;;;2.67;;
61009;SDS011;46897;55.340;86.082;2022-09-13T08:15:04;3.88;;;1.35;;
61009;SDS011;46897;55.340;86.082;2022-09-13T08:17:36;7.10;;;2.65;;
61009;SDS011;46897;55.340;86.082;2022-09-13T08:20:15;2.03;;;1.30;;
61009;SDS011;46897;55.340;86.082;2022-09-13T08:22:46;2.90;;;1.40;;
61009;SDS011;46897;55.340;86.082;2022-09-13T08:25:16;2.75;;;1.20;;
61009;SDS011;46897;55.340;86.082;2022-09-13T08:27:47;3.15;;;1.67;;
61009;SDS011;46897;55.340;86.082;2022-09-13T08:30:17;2.33;;;1.52;;
61009;SDS011;46897;55.340;86.082;2022-09-13T08:32:50;4.35;;;1.77;;
61009;SDS011;46897;55.340;86.082;2022-09-13T08:35:19;3.72;;;1.58;;
61009;SDS011;46897;55.340;86.082;2022-09-13T08:37:48;3.63;;;2.00;;
61009;SDS011;46897;55.340;86.082;2022-09-13T08:40:18;5.93;;;3.20;;
61009;SDS011;46897;55.340;86.082;2022-09-13T08:43:14;3.42;;;1.75;;
61009;SDS011;46897;55.340;86.082;2022-09-13T08:45:53;5.25;;;1.38;;
61009;SDS011;46897;55.340;86.082;2022-09-13T08:48:35;5.00;;;1.80;;
61009;SDS011;46897;55.340;86.082;2022-09-13T08:51:21;5.07;;;1.90;;
61009;SDS011;46897;55.340;86.082;2022-09-13T08:53:55;2.67;;;1.42;;
61009;SDS011;46897;55.340;86.082;2022-09-13T08:56:33;2.75;;;1.30;;
61009;SDS011;46897;55.340;86.082;2022-09-13T08:59:17;5.38;;;1.88;;
61009;SDS011;46897;55.340;86.082;2022-09-13T09:02:04;2.58;;;1.20;;
61009;SDS011;46897;55.340;86.082;2022-09-13T09:04:46;2.70;;;1.38;;
61009;SDS011;46897;55.340;86.082;2022-09-13T09:07:21;18.98;;;2.95;;
61009;SDS011;46897;55.340;86.082;2022-09-13T09:09:55;19.85;;;3.35;;
61009;SDS011;46897;55.340;86.082;2022-09-13T09:12:30;47.28;;;5.00;;
61009;SDS011;46897;55.340;86.082;2022-09-13T09:15:12;15.32;;;2.30;;
61009;SDS011;46897;55.340;86.082;2022-09-13T09:17:49;8.45;;;1.75;;
61009;SDS011;46897;55.340;86.082;2022-09-13T09:20:25;12.65;;;2.42;;
61009;SDS011;46897;55.340;86.082;2022-09-13T09:23:00;11.90;;;2.45;;
61009;SDS011;46897;55.340;86.082;2022-09-13T09:25:37;7.00;;;2.05;;
61009;SDS011;46897;55.340;86.082;2022-09-13T09:28:08;5.82;;;1.67;;
61009;SDS011;46897;55.340;86.082;2022-09-13T09:30:42;2.58;;;1.60;;
61009;SDS011;46897;55.340;86.082;2022-09-13T09:33:27;5.43;;;1.23;;
61009;SDS011;46897;55.340;86.082;2022-09-13T09:36:12;3.00;;;1.30;;
61009;SDS011;46897;55.340;86.082;2022-09-13T09:38:48;2.75;;;1.30;;
61009;SDS011;46897;55.340;86.082;2022-09-13T09:41:21;3.72;;;1.40;;
61009;SDS011;46897;55.340;86.082;2022-09-13T09:43:57;3.35;;;1.40;;
61009;SDS011;46897;55.340;86.082;2022-09-13T09:46:29;6.75;;;3.08;;
61009;SDS011;46897;55.340;86.082;2022-09-13T09:49:03;4.43;;;1.42;;
61009;SDS011;46897;55.340;86.082;2022-09-13T09:52:02;3.00;;;1.30;;
61009;SDS011;46897;55.340;86.082;2022-09-13T09:54:34;1.95;;;1.35;;
61009;SDS011;46897;55.340;86.082;2022-09-13T09:57:07;2.50;;;1.48;;
61009;SDS011;46897;55.340;86.082;2022-09-13T09:59:37;5.05;;;1.45;;
61009;SDS011;46897;55.340;86.082;2022-09-13T10:02:12;3.80;;;1.60;;
61009;SDS011;46897;55.340;86.082;2022-09-13T10:04:52;6.18;;;1.80;;
61009;SDS011;46897;55.340;86.082;2022-09-13T10:07:27;2.58;;;1.05;;
61009;SDS011;46897;55.340;86.082;2022-09-13T10:09:59;4.00;;;1.45;;
61009;SDS011;46897;55.340;86.082;2022-09-13T10:12:31;3.80;;;1.35;;
61009;SDS011;46897;55.340;86.082;2022-09-13T10:15:05;2.38;;;1.27;;
61009;SDS011;46897;55.340;86.082;2022-09-13T10:17:59;1.98;;;1.23;;
61009;SDS011;46897;55.340;86.082;2022-09-13T10:20:31;4.90;;;1.63;;
61009;SDS011;46897;55.340;86.082;2022-09-13T10:26:03;5.60;;;1.70;;
61009;SDS011;46897;55.340;86.082;2022-09-13T10:28:40;8.43;;;1.95;;
61009;SDS011;46897;55.340;86.082;2022-09-13T10:33:43;4.28;;;1.98;;
61009;SDS011;46897;55.340;86.082;2022-09-13T10:36:25;3.40;;;1.73;;
61009;SDS011;46897;55.340;86.082;2022-09-13T10:39:20;3.25;;;1.40;;
61009;SDS011;46897;55.340;86.082;2022-09-13T10:42:02;3.80;;;1.40;;
61009;SDS011;46897;55.340;86.082;2022-09-13T10:44:44;3.42;;;1.30;;
61009;SDS011;46897;55.340;86.082;2022-09-13T10:47:21;3.30;;;1.77;;
61009;SDS011;46897;55.340;86.082;2022-09-13T10:50:09;2.15;;;1.42;;
61009;SDS011;46897;55.340;86.082;2022-09-13T10:52:47;2.92;;;1.30;;
61009;SDS011;46897;55.340;86.082;2022-09-13T10:55:29;6.63;;;1.92;;
61009;SDS011;46897;55.340;86.082;2022-09-13T10:58:14;3.55;;;1.90;;
61009;SDS011;46897;55.340;86.082;2022-09-13T11:07:08;4.40;;;1.92;;
